createdAt,value
2023-05-19T00:00:02.425Z,68.79
2023-05-19T00:03:39.375Z,68.68
2023-05-19T00:06:47.884Z,68.66
2023-05-19T00:13:28.927Z,69.13
2023-05-19T00:16:37.255Z,69.12
2023-05-19T00:19:10.790Z,69.77
2023-05-19T00:21:39.610Z,69.62
2023-05-19T00:24:07.716Z,69.49
2023-05-19T00:26:36.277Z,70.06
2023-05-19T00:29:06.196Z,70.61
2023-05-19T00:31:34.719Z,70.45
2023-05-19T00:34:42.974Z,70.79
2023-05-19T00:37:11.191Z,70.51
2023-05-19T00:39:39.575Z,70.84
2023-05-19T00:42:08.013Z,71.09
2023-05-19T00:45:16.225Z,71.33
2023-05-19T00:48:24.641Z,71.38
2023-05-19T00:51:39.035Z,71.48
2023-05-19T00:54:35.516Z,72.03
2023-05-19T00:57:04.556Z,72.22
2023-05-19T00:59:33.427Z,72.43
2023-05-19T01:02:03.185Z,72.92
2023-05-19T01:04:35.205Z,72.59
2023-05-19T01:07:05.295Z,72.98
2023-05-19T01:09:33.909Z,72.92
2023-05-19T01:12:02.225Z,73.19
2023-05-19T01:14:30.884Z,73.89
2023-05-19T01:21:12.188Z,74.01
2023-05-19T01:24:09.853Z,74.69
2023-05-19T01:26:50.264Z,74.78
2023-05-19T01:29:18.491Z,75.06
2023-05-19T01:31:48.177Z,75.94
2023-05-19T01:34:17.005Z,75.83
2023-05-19T01:37:27.056Z,76.33
2023-05-19T01:40:35.236Z,76.39
2023-05-19T01:43:04.166Z,77.12
2023-05-19T01:49:09.544Z,77.03
2023-05-19T01:52:17.191Z,77.00
2023-05-19T01:54:46.128Z,77.18
2023-05-19T01:57:34.895Z,78.07
2023-05-19T02:00:08.587Z,78.74
2023-05-19T02:03:04.347Z,79.94
2023-05-19T02:05:38.733Z,79.62
2023-05-19T02:08:09.980Z,79.87
2023-05-19T02:10:41.064Z,80.11
2023-05-19T02:13:13.904Z,80.21
2023-05-19T02:15:42.662Z,80.58
2023-05-19T02:18:12.034Z,80.84
2023-05-19T02:20:40.991Z,81.47
2023-05-19T02:23:09.470Z,81.72
2023-05-19T02:25:38.582Z,82.10
2023-05-19T02:28:07.503Z,82.21
2023-05-19T02:30:35.836Z,82.50
2023-05-19T02:33:06.664Z,83.70
2023-05-19T02:35:35.103Z,83.04
2023-05-19T02:38:03.743Z,82.80
2023-05-19T02:40:32.439Z,83.63
2023-05-19T02:43:02.041Z,84.34
2023-05-19T02:45:30.416Z,84.52
2023-05-19T02:48:00.640Z,84.51
2023-05-19T02:50:29.444Z,85.01
2023-05-19T02:52:57.740Z,85.55
2023-05-19T02:55:25.933Z,85.74
2023-05-19T02:57:54.164Z,84.95
2023-05-19T03:00:23.258Z,85.17
2023-05-19T03:03:31.469Z,85.86
2023-05-19T03:06:39.694Z,85.57
2023-05-19T03:09:47.743Z,85.84
2023-05-19T03:12:56.014Z,85.92
2023-05-19T03:16:04.233Z,85.44
2023-05-19T03:19:12.642Z,85.49
2023-05-19T03:22:26.496Z,85.10
2023-05-19T03:25:34.919Z,85.32
2023-05-19T03:28:43.150Z,85.02
2023-05-19T03:31:51.548Z,84.89
2023-05-19T03:34:20.037Z,85.13
2023-05-19T03:37:08.385Z,84.22
2023-05-19T03:39:57.663Z,84.00
2023-05-19T03:42:46.210Z,83.79
2023-05-19T03:45:34.336Z,83.70
2023-05-19T03:48:31.710Z,83.07
2023-05-19T03:51:49.551Z,83.31
2023-05-19T03:54:57.971Z,82.46
2023-05-19T04:01:23.506Z,82.47
2023-05-19T04:04:12.500Z,82.15
2023-05-19T04:07:01.542Z,81.73
2023-05-19T04:09:49.883Z,81.39
2023-05-19T04:12:38.449Z,81.23
2023-05-19T04:15:40.833Z,80.87
2023-05-19T04:18:30.802Z,80.52
2023-05-19T04:35:19.886Z,78.06
2023-05-19T04:37:48.760Z,77.11
2023-05-19T04:40:21.294Z,76.60
2023-05-19T04:42:52.445Z,75.77
2023-05-19T04:45:20.964Z,75.29
2023-05-19T04:47:52.870Z,74.40
2023-05-19T04:50:21.995Z,73.47
2023-05-19T04:52:50.608Z,72.97
2023-05-19T04:55:19.203Z,72.37
2023-05-19T04:57:49.631Z,71.82
2023-05-19T05:00:19.128Z,71.20
2023-05-19T05:03:00.367Z,70.88
2023-05-19T05:05:30.540Z,69.92
2023-05-19T05:07:59.013Z,69.38
2023-05-19T05:10:28.928Z,68.26
2023-05-19T05:12:57.732Z,67.91
2023-05-19T05:15:29.008Z,67.53
2023-05-19T05:17:58.255Z,66.84
2023-05-19T05:20:26.970Z,65.97
2023-05-19T05:22:55.998Z,65.52
2023-05-19T05:25:24.638Z,64.97
2023-05-19T05:27:53.116Z,64.27
2023-05-19T05:30:21.807Z,63.33
2023-05-19T05:32:50.785Z,63.39
2023-05-19T05:35:30.521Z,62.98
2023-05-19T05:37:59.275Z,62.93
2023-05-19T05:40:27.869Z,61.10
2023-05-19T05:42:57.119Z,60.03
2023-05-19T05:45:26.020Z,59.40
2023-05-19T05:48:34.595Z,59.41
2023-05-19T05:51:51.119Z,58.85
2023-05-19T05:54:43.675Z,58.61
2023-05-19T05:57:59.389Z,57.68
2023-05-19T06:01:07.650Z,56.79
2023-05-19T06:04:16.028Z,56.57
2023-05-19T06:11:01.145Z,55.17
2023-05-19T06:14:10.157Z,54.61
2023-05-19T06:17:41.409Z,54.64
2023-05-19T06:24:22.976Z,53.12
2023-05-19T06:27:33.290Z,53.16
2023-05-19T06:30:03.548Z,52.86
2023-05-19T06:33:15.117Z,52.92
2023-05-19T06:35:43.802Z,51.58
2023-05-19T06:38:12.388Z,51.30
2023-05-19T06:40:41.172Z,50.48
2023-05-19T06:43:09.741Z,50.46
2023-05-19T06:45:58.234Z,50.58
2023-05-19T06:48:27.567Z,49.68
2023-05-19T06:50:56.721Z,49.43
2023-05-19T06:53:25.359Z,48.95
2023-05-19T06:55:59.933Z,49.09
2023-05-19T06:58:32.541Z,49.35
2023-05-19T07:01:01.672Z,47.77
2023-05-19T07:03:33.791Z,47.92
2023-05-19T07:06:02.507Z,47.71
2023-05-19T07:08:30.745Z,47.24
2023-05-19T07:11:01.373Z,45.95
2023-05-19T07:13:30.368Z,45.71
2023-05-19T07:15:59.391Z,44.99
2023-05-19T07:18:32.166Z,45.01
2023-05-19T07:21:00.952Z,45.27
2023-05-19T07:23:29.318Z,45.70
2023-05-19T07:25:58.004Z,46.26
2023-05-19T07:28:26.596Z,45.86
2023-05-19T07:30:55.019Z,45.95
2023-05-19T07:33:23.753Z,46.06
2023-05-19T07:35:52.532Z,45.11
2023-05-19T07:38:21.753Z,45.42
2023-05-19T07:40:50.120Z,45.08
2023-05-19T07:43:18.711Z,45.20
2023-05-19T07:45:47.317Z,44.34
2023-05-19T07:48:15.707Z,43.76
2023-05-19T07:50:44.157Z,44.08
2023-05-19T07:53:12.740Z,45.22
2023-05-19T07:55:41.246Z,45.58
2023-05-19T07:58:09.500Z,45.35
2023-05-19T08:00:38.193Z,45.93
2023-05-19T08:03:06.614Z,46.33
2023-05-19T08:05:36.283Z,45.79
2023-05-19T08:08:05.071Z,45.20
2023-05-19T08:10:33.953Z,44.22
2023-05-19T08:13:02.550Z,44.53
2023-05-19T08:15:31.254Z,43.99
2023-05-19T08:17:59.761Z,44.22
2023-05-19T08:20:28.205Z,44.56
2023-05-19T08:22:56.997Z,43.54
2023-05-19T08:25:25.351Z,42.11
2023-05-19T08:27:53.865Z,41.31
2023-05-19T08:30:22.548Z,40.70
2023-05-19T08:32:50.790Z,41.00
2023-05-19T08:35:19.406Z,40.81
2023-05-19T08:37:48.197Z,40.83
2023-05-19T08:40:17.534Z,41.18
2023-05-19T08:42:46.390Z,41.69
2023-05-19T08:45:15.202Z,42.34
2023-05-19T08:47:46.436Z,43.37
2023-05-19T08:50:17.468Z,42.40
2023-05-19T08:52:53.556Z,42.65
2023-05-19T08:55:22.114Z,41.87
2023-05-19T08:57:51.109Z,41.79
2023-05-19T09:00:21.023Z,41.61
2023-05-19T09:03:01.020Z,41.60
2023-05-19T09:05:39.678Z,41.07
2023-05-19T09:08:08.393Z,40.38
2023-05-19T09:10:36.561Z,39.47
2023-05-19T09:13:05.409Z,39.60
2023-05-19T09:15:37.048Z,39.27
2023-05-19T09:18:13.178Z,38.05
2023-05-19T09:20:46.266Z,37.90
2023-05-19T09:23:16.270Z,38.75
2023-05-19T09:25:49.398Z,38.01
2023-05-19T09:28:23.949Z,37.51
2023-05-19T09:30:58.992Z,37.68
2023-05-19T09:33:28.759Z,37.12
2023-05-19T09:35:57.543Z,37.26
2023-05-19T09:38:29.913Z,38.62
2023-05-19T09:40:59.115Z,37.27
2023-05-19T09:43:28.312Z,36.94
2023-05-19T09:46:00.503Z,36.84
2023-05-19T09:48:29.168Z,36.77
2023-05-19T09:50:58.365Z,36.01
2023-05-19T09:53:27.070Z,36.02
2023-05-19T09:55:59.325Z,36.27
2023-05-19T09:58:31.291Z,34.95
2023-05-19T10:01:00.139Z,34.40
2023-05-19T10:03:28.770Z,35.25
2023-05-19T10:05:57.458Z,33.96
2023-05-19T10:08:27.584Z,33.69
2023-05-19T10:10:56.381Z,33.74
2023-05-19T10:13:25.766Z,33.66
2023-05-19T10:15:58.902Z,34.15
2023-05-19T10:18:30.058Z,33.13
2023-05-19T10:20:59.312Z,33.43
2023-05-19T10:23:27.518Z,32.61
2023-05-19T10:25:57.723Z,33.53
2023-05-19T10:28:31.982Z,33.78
2023-05-19T10:31:02.048Z,34.08
2023-05-19T10:33:41.843Z,33.90
2023-05-19T10:36:12.941Z,34.60
2023-05-19T10:38:51.227Z,34.25
2023-05-19T10:41:31.819Z,36.16
2023-05-19T10:44:13.106Z,35.73
2023-05-19T10:46:43.283Z,32.98
2023-05-19T10:49:20.114Z,31.60
2023-05-19T10:51:48.532Z,31.73
2023-05-19T10:54:18.606Z,32.31
2023-05-19T10:56:47.715Z,33.30
2023-05-19T10:59:35.267Z,33.48
2023-05-19T11:02:06.960Z,32.63
2023-05-19T11:04:51.936Z,33.73
2023-05-19T11:07:21.925Z,34.90
2023-05-19T11:09:53.848Z,34.12
2023-05-19T11:12:24.672Z,34.37
2023-05-19T11:14:54.707Z,33.86
2023-05-19T11:17:24.964Z,33.12
2023-05-19T11:19:54.950Z,33.10
2023-05-19T11:22:27.118Z,33.32
2023-05-19T11:24:56.139Z,33.54
2023-05-19T11:27:31.836Z,33.61
2023-05-19T11:30:02.286Z,33.11
2023-05-19T11:32:31.942Z,31.88
2023-05-19T11:35:01.231Z,31.05
2023-05-19T11:37:32.490Z,31.84
2023-05-19T11:40:07.640Z,30.18
2023-05-19T11:42:37.384Z,29.33
2023-05-19T11:45:06.497Z,29.79
2023-05-19T11:47:45.975Z,29.38
2023-05-19T11:50:21.118Z,27.87
2023-05-19T11:52:50.894Z,28.15
2023-05-19T11:55:22.457Z,29.15
2023-05-19T11:58:02.968Z,28.40
2023-05-19T12:00:37.793Z,28.85
2023-05-19T12:03:07.139Z,28.37
2023-05-19T12:05:43.081Z,27.70
2023-05-19T12:08:12.314Z,28.78
2023-05-19T12:10:41.198Z,28.63
2023-05-19T12:13:10.284Z,27.61
2023-05-19T12:15:39.606Z,26.54
2023-05-19T12:18:08.230Z,27.25
2023-05-19T12:20:37.669Z,27.13
2023-05-19T12:23:06.858Z,26.50
2023-05-19T12:25:35.699Z,26.06
2023-05-19T12:28:04.843Z,27.14
2023-05-19T12:30:34.830Z,26.68
2023-05-19T12:33:03.983Z,26.16
2023-05-19T12:35:36.501Z,26.71
2023-05-19T12:38:06.575Z,27.52
2023-05-19T12:40:36.037Z,27.15
2023-05-19T12:43:05.814Z,27.86
2023-05-19T12:45:35.362Z,27.66
2023-05-19T12:48:05.645Z,27.14
2023-05-19T12:50:34.888Z,27.17
2023-05-19T12:53:03.949Z,27.15
2023-05-19T12:55:37.036Z,26.85
2023-05-19T12:58:06.267Z,26.50
2023-05-19T13:00:40.657Z,26.58
2023-05-19T13:03:15.037Z,27.22
2023-05-19T13:05:44.689Z,26.68
2023-05-19T13:08:17.163Z,26.87
2023-05-19T13:10:46.279Z,26.46
2023-05-19T13:13:15.063Z,26.58
2023-05-19T13:15:44.366Z,27.61
2023-05-19T13:18:13.165Z,28.35
2023-05-19T13:20:43.677Z,29.32
2023-05-19T13:23:12.332Z,30.32
2023-05-19T13:25:41.660Z,31.37
2023-05-19T13:28:10.048Z,34.58
2023-05-19T13:30:39.860Z,37.58
2023-05-19T13:33:08.319Z,40.95
2023-05-19T13:35:37.947Z,42.61
2023-05-19T13:38:08.195Z,45.02
2023-05-19T13:40:36.972Z,45.99
2023-05-19T13:43:06.202Z,47.89
2023-05-19T13:45:34.886Z,49.95
2023-05-19T13:48:03.582Z,50.37
2023-05-19T13:50:31.859Z,53.55
2023-05-19T13:53:00.414Z,53.61
2023-05-19T13:55:28.685Z,55.60
2023-05-19T13:57:57.125Z,56.62
2023-05-19T14:00:25.543Z,59.52
2023-05-19T14:02:54.042Z,61.62
2023-05-19T14:05:22.509Z,64.89
2023-05-19T14:07:50.991Z,66.03
2023-05-19T14:10:19.576Z,65.98
2023-05-19T14:13:12.181Z,65.95
2023-05-19T14:15:38.331Z,66.50
2023-05-19T14:18:07.261Z,67.77
2023-05-19T14:20:36.285Z,68.91
2023-05-19T14:23:05.637Z,68.91
2023-05-19T14:25:33.980Z,67.16
2023-05-19T14:28:02.519Z,66.52
2023-05-19T14:30:31.200Z,65.71
2023-05-19T14:32:59.847Z,64.99
2023-05-19T14:35:28.266Z,65.94
2023-05-19T14:37:56.732Z,66.74
2023-05-19T14:40:25.022Z,66.62
2023-05-19T14:42:53.208Z,66.37
2023-05-19T14:45:21.718Z,65.83
2023-05-19T14:47:50.388Z,63.82
2023-05-19T14:50:18.880Z,62.70
2023-05-19T14:52:47.322Z,61.92
2023-05-19T14:55:15.714Z,62.42
2023-05-19T14:57:44.043Z,61.67
2023-05-19T15:00:12.992Z,60.94
2023-05-19T15:02:41.378Z,59.86
2023-05-19T15:05:10.045Z,59.72
2023-05-19T15:07:38.841Z,58.95
2023-05-19T15:10:08.292Z,58.77
2023-05-19T15:12:36.621Z,59.34
2023-05-19T15:15:05.426Z,58.91
2023-05-19T15:17:33.738Z,59.48
2023-05-19T15:20:02.499Z,59.60
2023-05-19T15:22:31.368Z,59.95
2023-05-19T15:24:59.736Z,60.75
2023-05-19T15:27:27.995Z,61.11
2023-05-19T15:29:56.675Z,60.62
2023-05-19T15:32:25.531Z,59.51
2023-05-19T15:34:53.890Z,59.59
2023-05-19T15:37:22.571Z,59.98
2023-05-19T15:39:51.157Z,61.43
2023-05-19T15:42:19.586Z,62.11
2023-05-19T15:44:48.126Z,62.53
2023-05-19T15:47:16.453Z,63.13
2023-05-19T15:49:45.090Z,63.17
2023-05-19T15:52:13.572Z,63.16
2023-05-19T15:54:42.260Z,63.17
2023-05-19T15:57:10.645Z,62.96
2023-05-19T15:59:39.379Z,63.18
2023-05-19T16:02:08.035Z,63.74
2023-05-19T16:04:37.851Z,64.25
2023-05-19T16:07:06.519Z,64.77
2023-05-19T16:09:34.750Z,65.33
2023-05-19T16:12:48.642Z,66.35
2023-05-19T16:15:57.037Z,66.29
2023-05-19T16:19:05.168Z,67.23
2023-05-19T16:22:13.591Z,67.65
2023-05-19T16:28:51.365Z,68.79
2023-05-19T16:31:59.704Z,68.95
2023-05-19T16:35:08.100Z,68.03
2023-05-19T16:41:47.829Z,67.91
2023-05-19T16:44:56.022Z,67.39
2023-05-19T16:48:04.245Z,66.81
2023-05-19T16:54:50.227Z,66.19
2023-05-19T16:57:55.095Z,65.60
2023-05-19T17:00:23.806Z,65.38
2023-05-19T17:02:52.054Z,65.51
2023-05-19T17:06:00.172Z,65.76
2023-05-19T17:09:08.336Z,65.79
2023-05-19T17:12:16.517Z,67.17
2023-05-19T17:15:24.564Z,67.10
2023-05-19T17:18:32.697Z,67.89
2023-05-19T17:21:03.972Z,68.43
2023-05-19T17:23:32.682Z,68.16
2023-05-19T17:26:02.080Z,68.28
2023-05-19T17:28:30.667Z,67.94
2023-05-19T17:30:58.966Z,67.96
2023-05-19T17:33:27.475Z,68.07
2023-05-19T17:35:56.043Z,68.61
2023-05-19T17:38:24.499Z,68.92
2023-05-19T17:40:53.905Z,69.32
2023-05-19T17:43:22.425Z,69.47
2023-05-19T17:45:50.996Z,69.57
2023-05-19T17:48:19.654Z,69.40
2023-05-19T17:50:48.465Z,68.93
2023-05-19T17:53:16.961Z,68.79
2023-05-19T17:55:50.526Z,68.84
2023-05-19T17:58:19.727Z,69.14
2023-05-19T18:00:48.210Z,69.31
2023-05-19T18:03:17.164Z,68.50
2023-05-19T18:05:45.899Z,67.87
2023-05-19T18:08:15.240Z,67.74
2023-05-19T18:10:44.289Z,67.29
2023-05-19T18:13:57.419Z,67.04
2023-05-19T18:17:05.853Z,66.99
2023-05-19T18:20:14.208Z,66.72
2023-05-19T18:22:43.003Z,66.84
2023-05-19T18:25:11.469Z,67.08
2023-05-19T18:27:40.113Z,67.00
2023-05-19T18:30:09.313Z,67.34
2023-05-19T18:32:37.953Z,67.48
2023-05-19T18:35:46.419Z,68.16
2023-05-19T18:38:54.837Z,68.57
2023-05-19T18:42:03.023Z,68.71
2023-05-19T18:45:11.314Z,69.21
2023-05-19T18:48:19.709Z,69.68
2023-05-19T18:50:48.175Z,69.77
2023-05-19T18:57:28.396Z,70.20
2023-05-19T19:00:36.678Z,70.22
2023-05-19T19:03:05.614Z,69.87
2023-05-19T19:05:34.356Z,69.71
2023-05-19T19:08:05.705Z,69.71
2023-05-19T19:10:37.675Z,69.73
2023-05-19T19:13:06.370Z,69.91
2023-05-19T19:15:34.528Z,69.60
2023-05-19T19:18:02.953Z,70.09
2023-05-19T19:20:31.737Z,69.98
2023-05-19T19:23:01.985Z,70.16
2023-05-19T19:25:30.403Z,70.06
2023-05-19T19:27:59.098Z,70.32
2023-05-19T19:30:27.879Z,70.13
2023-05-19T19:32:57.128Z,69.77
2023-05-19T19:35:25.975Z,69.88
2023-05-19T19:37:54.373Z,69.58
2023-05-19T19:40:23.053Z,69.36
2023-05-19T19:42:51.786Z,69.17
2023-05-19T19:45:21.148Z,69.38
2023-05-19T19:47:49.658Z,69.38
2023-05-19T19:50:18.167Z,69.19
2023-05-19T19:53:26.381Z,69.19
2023-05-19T19:56:40.672Z,69.52
2023-05-19T19:59:49.076Z,70.02
2023-05-19T20:03:04.941Z,70.20
2023-05-19T20:06:14.436Z,70.11
2023-05-19T20:09:22.752Z,70.37
2023-05-19T20:11:51.082Z,70.31
2023-05-19T20:14:19.706Z,70.67
2023-05-19T20:16:48.135Z,70.91
2023-05-19T20:19:16.656Z,71.33
2023-05-19T20:22:24.794Z,72.07
2023-05-19T20:24:53.183Z,73.22
2023-05-19T20:27:21.445Z,72.78
2023-05-19T20:29:49.724Z,72.75
2023-05-19T20:32:18.086Z,73.02
2023-05-19T20:34:46.708Z,72.90
2023-05-19T20:37:15.064Z,72.73
2023-05-19T20:39:43.321Z,72.83
2023-05-19T20:42:11.563Z,73.34
2023-05-19T20:44:39.805Z,73.67
2023-05-19T20:47:08.570Z,73.95
2023-05-19T20:49:37.173Z,74.21
2023-05-19T20:52:05.697Z,74.32
2023-05-19T20:54:34.037Z,74.43
2023-05-19T20:57:06.733Z,74.19
2023-05-19T20:59:38.160Z,75.13
2023-05-19T21:02:07.690Z,74.81
2023-05-19T21:04:36.511Z,74.85
2023-05-19T21:07:44.827Z,76.04
2023-05-19T21:14:25.202Z,75.74
2023-05-19T21:17:33.692Z,75.87
2023-05-19T21:20:42.017Z,75.64
2023-05-19T21:23:50.189Z,75.77
2023-05-19T21:26:18.868Z,76.37
2023-05-19T21:28:47.396Z,76.55
2023-05-19T21:31:16.091Z,75.92
2023-05-19T21:33:44.874Z,75.57
2023-05-19T21:36:13.677Z,75.37
2023-05-19T21:38:41.953Z,75.56
2023-05-19T21:41:10.431Z,75.37
2023-05-19T21:43:38.905Z,75.30
2023-05-19T21:46:07.396Z,75.12
2023-05-19T21:48:36.281Z,75.01
2023-05-19T21:51:04.819Z,74.92
2023-05-19T21:53:33.153Z,75.36
2023-05-19T21:56:01.639Z,75.61
2023-05-19T21:59:09.692Z,75.76
2023-05-19T22:02:17.829Z,75.77
2023-05-19T22:05:26.363Z,75.96
2023-05-19T22:07:54.546Z,75.90
2023-05-19T22:10:23.046Z,76.21
2023-05-19T22:12:51.628Z,76.01
2023-05-19T22:15:20.208Z,76.08
2023-05-19T22:17:48.753Z,75.86
2023-05-19T22:24:15.571Z,76.11
2023-05-19T22:26:44.238Z,76.25
2023-05-19T22:29:15.391Z,76.02
2023-05-19T22:31:43.861Z,75.31
2023-05-19T22:34:13.253Z,75.34
2023-05-19T22:36:44.417Z,76.25
2023-05-19T22:39:12.769Z,76.48
2023-05-19T22:41:41.380Z,76.13
2023-05-19T22:44:10.886Z,77.08
2023-05-19T22:46:39.468Z,77.99
2023-05-19T22:49:08.159Z,78.83
2023-05-19T22:51:36.538Z,79.36
2023-05-19T22:54:04.818Z,79.03
2023-05-19T22:56:33.707Z,78.92
2023-05-19T22:59:01.986Z,78.42
2023-05-19T23:01:30.234Z,78.57
2023-05-19T23:03:58.912Z,78.59
2023-05-19T23:06:27.379Z,79.73
2023-05-19T23:09:02.419Z,80.19
2023-05-19T23:11:31.167Z,79.06
2023-05-19T23:13:59.432Z,78.67
2023-05-19T23:16:27.647Z,78.07
2023-05-19T23:18:56.436Z,78.80
2023-05-19T23:21:24.736Z,79.14
2023-05-19T23:23:53.149Z,79.22
2023-05-19T23:26:22.100Z,79.24
2023-05-19T23:28:50.665Z,79.50
2023-05-19T23:31:19.081Z,79.35
2023-05-19T23:33:47.706Z,79.31
2023-05-19T23:36:16.197Z,79.62
2023-05-19T23:38:44.771Z,80.48
2023-05-19T23:41:13.661Z,80.83
2023-05-19T23:43:42.056Z,81.91
2023-05-19T23:46:10.515Z,81.86
2023-05-19T23:48:39.634Z,82.05
2023-05-19T23:51:08.118Z,82.25
2023-05-19T23:53:36.599Z,82.09
2023-05-19T23:56:05.177Z,81.91
2023-05-19T23:58:33.652Z,82.34
